sensor_id;sensor_type;location;lat;lon;timestamp;P1;durP1;ratioP1;P2;durP2;ratioP2
31206;SDS011;17834;52.992;8.856;2023-06-10T00:00:49;5.93;;;3.13;;
31206;SDS011;17834;52.992;8.856;2023-06-10T00:03:16;6.60;;;3.33;;
31206;SDS011;17834;52.992;8.856;2023-06-10T00:05:41;9.20;;;3.70;;
31206;SDS011;17834;52.992;8.856;2023-06-10T00:08:07;7.75;;;3.10;;
31206;SDS011;17834;52.992;8.856;2023-06-10T00:10:33;5.05;;;3.28;;
31206;SDS011;17834;52.992;8.856;2023-06-10T00:13:03;10.07;;;3.85;;
31206;SDS011;17834;52.992;8.856;2023-06-10T00:15:29;8.40;;;4.07;;
31206;SDS011;17834;52.992;8.856;2023-06-10T00:17:55;8.40;;;3.75;;
31206;SDS011;17834;52.992;8.856;2023-06-10T00:20:21;9.63;;;4.10;;
31206;SDS011;17834;52.992;8.856;2023-06-10T00:22:50;13.43;;;3.90;;
31206;SDS011;17834;52.992;8.856;2023-06-10T00:25:16;7.57;;;3.63;;
31206;SDS011;17834;52.992;8.856;2023-06-10T00:27:41;9.82;;;4.20;;
31206;SDS011;17834;52.992;8.856;2023-06-10T00:30:07;14.43;;;3.90;;
31206;SDS011;17834;52.992;8.856;2023-06-10T00:32:33;8.68;;;3.83;;
31206;SDS011;17834;52.992;8.856;2023-06-10T00:34:59;11.45;;;4.38;;
31206;SDS011;17834;52.992;8.856;2023-06-10T00:37:25;9.27;;;3.97;;
31206;SDS011;17834;52.992;8.856;2023-06-10T00:39:50;9.93;;;3.60;;
31206;SDS011;17834;52.992;8.856;2023-06-10T00:42:16;9.07;;;3.72;;
31206;SDS011;17834;52.992;8.856;2023-06-10T00:44:41;12.38;;;4.45;;
31206;SDS011;17834;52.992;8.856;2023-06-10T00:47:07;14.43;;;4.55;;
31206;SDS011;17834;52.992;8.856;2023-06-10T00:49:33;11.77;;;4.18;;
31206;SDS011;17834;52.992;8.856;2023-06-10T00:51:58;8.38;;;4.10;;
31206;SDS011;17834;52.992;8.856;2023-06-10T00:54:24;15.88;;;5.03;;
31206;SDS011;17834;52.992;8.856;2023-06-10T00:56:50;11.25;;;4.03;;
31206;SDS011;17834;52.992;8.856;2023-06-10T00:59:16;13.10;;;4.63;;
31206;SDS011;17834;52.992;8.856;2023-06-10T01:01:42;6.88;;;4.43;;
31206;SDS011;17834;52.992;8.856;2023-06-10T01:04:08;10.18;;;3.92;;
31206;SDS011;17834;52.992;8.856;2023-06-10T01:06:41;8.90;;;4.50;;
31206;SDS011;17834;52.992;8.856;2023-06-10T01:12:31;12.13;;;4.60;;
31206;SDS011;17834;52.992;8.856;2023-06-10T01:15:17;12.63;;;4.80;;
31206;SDS011;17834;52.992;8.856;2023-06-10T01:17:56;8.55;;;4.05;;
31206;SDS011;17834;52.992;8.856;2023-06-10T01:20:23;11.50;;;4.47;;
31206;SDS011;17834;52.992;8.856;2023-06-10T01:22:51;9.90;;;4.68;;
31206;SDS011;17834;52.992;8.856;2023-06-10T01:25:19;8.63;;;4.63;;
31206;SDS011;17834;52.992;8.856;2023-06-10T01:27:45;16.58;;;4.88;;
31206;SDS011;17834;52.992;8.856;2023-06-10T01:30:15;12.55;;;5.35;;
31206;SDS011;17834;52.992;8.856;2023-06-10T01:32:48;9.02;;;4.18;;
31206;SDS011;17834;52.992;8.856;2023-06-10T01:35:16;8.95;;;4.55;;
31206;SDS011;17834;52.992;8.856;2023-06-10T01:37:43;9.70;;;4.93;;
31206;SDS011;17834;52.992;8.856;2023-06-10T01:40:11;14.38;;;4.82;;
31206;SDS011;17834;52.992;8.856;2023-06-10T01:42:38;12.82;;;5.20;;
31206;SDS011;17834;52.992;8.856;2023-06-10T01:45:04;11.10;;;4.82;;
31206;SDS011;17834;52.992;8.856;2023-06-10T01:47:29;10.02;;;4.65;;
31206;SDS011;17834;52.992;8.856;2023-06-10T01:49:55;11.40;;;5.30;;
31206;SDS011;17834;52.992;8.856;2023-06-10T01:52:21;14.82;;;5.22;;
31206;SDS011;17834;52.992;8.856;2023-06-10T01:54:46;12.63;;;5.07;;
31206;SDS011;17834;52.992;8.856;2023-06-10T01:57:12;11.57;;;5.40;;
31206;SDS011;17834;52.992;8.856;2023-06-10T01:59:37;12.38;;;5.30;;
31206;SDS011;17834;52.992;8.856;2023-06-10T02:02:03;8.80;;;4.97;;
31206;SDS011;17834;52.992;8.856;2023-06-10T02:04:29;12.40;;;6.00;;
31206;SDS011;17834;52.992;8.856;2023-06-10T02:06:55;11.80;;;5.60;;
31206;SDS011;17834;52.992;8.856;2023-06-10T02:09:20;11.02;;;6.13;;
31206;SDS011;17834;52.992;8.856;2023-06-10T02:11:47;12.55;;;5.22;;
31206;SDS011;17834;52.992;8.856;2023-06-10T02:14:13;20.00;;;6.90;;
31206;SDS011;17834;52.992;8.856;2023-06-10T02:16:39;12.85;;;6.30;;
31206;SDS011;17834;52.992;8.856;2023-06-10T02:19:05;10.45;;;5.20;;
31206;SDS011;17834;52.992;8.856;2023-06-10T02:21:31;11.48;;;5.53;;
31206;SDS011;17834;52.992;8.856;2023-06-10T02:23:57;9.57;;;4.72;;
31206;SDS011;17834;52.992;8.856;2023-06-10T02:26:23;10.38;;;5.63;;
31206;SDS011;17834;52.992;8.856;2023-06-10T02:28:50;8.90;;;5.20;;
31206;SDS011;17834;52.992;8.856;2023-06-10T02:31:16;19.58;;;5.82;;
31206;SDS011;17834;52.992;8.856;2023-06-10T02:33:42;12.63;;;5.80;;
31206;SDS011;17834;52.992;8.856;2023-06-10T02:36:09;10.90;;;5.55;;
31206;SDS011;17834;52.992;8.856;2023-06-10T02:38:38;15.48;;;5.53;;
31206;SDS011;17834;52.992;8.856;2023-06-10T02:41:05;16.75;;;6.35;;
31206;SDS011;17834;52.992;8.856;2023-06-10T02:43:30;15.23;;;6.10;;
31206;SDS011;17834;52.992;8.856;2023-06-10T02:45:56;11.93;;;5.63;;
31206;SDS011;17834;52.992;8.856;2023-06-10T02:48:23;15.30;;;6.88;;
31206;SDS011;17834;52.992;8.856;2023-06-10T02:50:49;13.18;;;6.57;;
31206;SDS011;17834;52.992;8.856;2023-06-10T02:53:15;11.00;;;6.10;;
31206;SDS011;17834;52.992;8.856;2023-06-10T02:55:40;16.15;;;6.55;;
31206;SDS011;17834;52.992;8.856;2023-06-10T02:58:06;12.98;;;6.05;;
31206;SDS011;17834;52.992;8.856;2023-06-10T03:00:32;14.70;;;5.53;;
31206;SDS011;17834;52.992;8.856;2023-06-10T03:02:58;12.07;;;5.65;;
31206;SDS011;17834;52.992;8.856;2023-06-10T03:05:27;15.05;;;6.57;;
31206;SDS011;17834;52.992;8.856;2023-06-10T03:07:53;16.60;;;6.13;;
31206;SDS011;17834;52.992;8.856;2023-06-10T03:10:19;13.75;;;6.63;;
31206;SDS011;17834;52.992;8.856;2023-06-10T03:12:44;11.98;;;5.78;;
31206;SDS011;17834;52.992;8.856;2023-06-10T03:15:10;17.92;;;6.60;;
31206;SDS011;17834;52.992;8.856;2023-06-10T03:17:35;13.20;;;6.28;;
31206;SDS011;17834;52.992;8.856;2023-06-10T03:20:01;14.73;;;5.90;;
31206;SDS011;17834;52.992;8.856;2023-06-10T03:22:28;13.90;;;6.38;;
31206;SDS011;17834;52.992;8.856;2023-06-10T03:24:53;11.38;;;6.90;;
31206;SDS011;17834;52.992;8.856;2023-06-10T03:27:19;11.68;;;6.03;;
31206;SDS011;17834;52.992;8.856;2023-06-10T03:29:45;14.45;;;6.43;;
31206;SDS011;17834;52.992;8.856;2023-06-10T03:32:10;15.52;;;7.43;;
31206;SDS011;17834;52.992;8.856;2023-06-10T03:34:36;14.95;;;8.52;;
31206;SDS011;17834;52.992;8.856;2023-06-10T03:37:02;18.50;;;8.57;;
31206;SDS011;17834;52.992;8.856;2023-06-10T03:39:28;12.45;;;6.90;;
31206;SDS011;17834;52.992;8.856;2023-06-10T03:41:54;15.07;;;7.63;;
31206;SDS011;17834;52.992;8.856;2023-06-10T03:44:21;15.45;;;7.32;;
31206;SDS011;17834;52.992;8.856;2023-06-10T03:46:46;15.10;;;8.15;;
31206;SDS011;17834;52.992;8.856;2023-06-10T03:49:12;13.25;;;7.00;;
31206;SDS011;17834;52.992;8.856;2023-06-10T03:51:38;14.75;;;7.68;;
31206;SDS011;17834;52.992;8.856;2023-06-10T03:54:03;16.00;;;8.07;;
31206;SDS011;17834;52.992;8.856;2023-06-10T03:56:29;16.85;;;8.98;;
31206;SDS011;17834;52.992;8.856;2023-06-10T03:58:55;21.75;;;9.20;;
31206;SDS011;17834;52.992;8.856;2023-06-10T04:01:21;18.48;;;9.20;;
31206;SDS011;17834;52.992;8.856;2023-06-10T04:03:48;18.17;;;9.93;;
31206;SDS011;17834;52.992;8.856;2023-06-10T04:06:16;15.85;;;9.00;;
31206;SDS011;17834;52.992;8.856;2023-06-10T04:08:41;16.88;;;8.57;;
31206;SDS011;17834;52.992;8.856;2023-06-10T04:11:07;20.08;;;9.65;;
31206;SDS011;17834;52.992;8.856;2023-06-10T04:13:33;18.77;;;8.38;;
31206;SDS011;17834;52.992;8.856;2023-06-10T04:15:59;14.30;;;8.07;;
31206;SDS011;17834;52.992;8.856;2023-06-10T04:18:24;15.88;;;8.65;;
31206;SDS011;17834;52.992;8.856;2023-06-10T04:20:50;10.98;;;7.38;;
31206;SDS011;17834;52.992;8.856;2023-06-10T04:23:16;13.82;;;8.77;;
31206;SDS011;17834;52.992;8.856;2023-06-10T04:25:41;15.02;;;7.70;;
31206;SDS011;17834;52.992;8.856;2023-06-10T04:28:07;15.65;;;7.63;;
31206;SDS011;17834;52.992;8.856;2023-06-10T04:30:32;16.92;;;7.90;;
31206;SDS011;17834;52.992;8.856;2023-06-10T04:32:58;11.75;;;7.15;;
31206;SDS011;17834;52.992;8.856;2023-06-10T04:35:23;11.45;;;7.28;;
31206;SDS011;17834;52.992;8.856;2023-06-10T04:37:51;14.75;;;7.22;;
31206;SDS011;17834;52.992;8.856;2023-06-10T04:40:17;14.30;;;7.05;;
31206;SDS011;17834;52.992;8.856;2023-06-10T04:42:42;11.02;;;6.50;;
31206;SDS011;17834;52.992;8.856;2023-06-10T04:45:08;12.07;;;6.72;;
31206;SDS011;17834;52.992;8.856;2023-06-10T04:47:34;14.18;;;6.70;;
31206;SDS011;17834;52.992;8.856;2023-06-10T04:50:00;14.50;;;6.95;;
31206;SDS011;17834;52.992;8.856;2023-06-10T04:52:26;11.98;;;6.70;;
31206;SDS011;17834;52.992;8.856;2023-06-10T04:54:52;11.27;;;6.78;;
31206;SDS011;17834;52.992;8.856;2023-06-10T04:57:18;12.25;;;5.70;;
31206;SDS011;17834;52.992;8.856;2023-06-10T04:59:45;10.50;;;5.88;;
31206;SDS011;17834;52.992;8.856;2023-06-10T05:02:10;11.35;;;5.97;;
31206;SDS011;17834;52.992;8.856;2023-06-10T05:04:36;12.10;;;6.53;;
31206;SDS011;17834;52.992;8.856;2023-06-10T05:07:01;12.90;;;6.20;;
31206;SDS011;17834;52.992;8.856;2023-06-10T05:09:27;11.90;;;5.90;;
31206;SDS011;17834;52.992;8.856;2023-06-10T05:11:53;10.68;;;5.75;;
31206;SDS011;17834;52.992;8.856;2023-06-10T05:14:19;11.93;;;5.78;;
31206;SDS011;17834;52.992;8.856;2023-06-10T05:16:46;17.38;;;6.93;;
31206;SDS011;17834;52.992;8.856;2023-06-10T05:19:11;8.73;;;5.05;;
31206;SDS011;17834;52.992;8.856;2023-06-10T05:21:37;7.07;;;4.88;;
31206;SDS011;17834;52.992;8.856;2023-06-10T05:24:02;11.40;;;5.85;;
31206;SDS011;17834;52.992;8.856;2023-06-10T05:26:28;10.20;;;5.50;;
31206;SDS011;17834;52.992;8.856;2023-06-10T05:28:56;7.60;;;5.07;;
31206;SDS011;17834;52.992;8.856;2023-06-10T05:31:22;10.02;;;5.38;;
31206;SDS011;17834;52.992;8.856;2023-06-10T05:33:47;11.10;;;5.72;;
31206;SDS011;17834;52.992;8.856;2023-06-10T05:36:13;12.57;;;5.90;;
31206;SDS011;17834;52.992;8.856;2023-06-10T05:38:38;10.90;;;5.65;;
31206;SDS011;17834;52.992;8.856;2023-06-10T05:41:04;11.30;;;5.90;;
31206;SDS011;17834;52.992;8.856;2023-06-10T05:43:29;8.75;;;4.80;;
31206;SDS011;17834;52.992;8.856;2023-06-10T05:45:55;8.80;;;5.10;;
31206;SDS011;17834;52.992;8.856;2023-06-10T05:48:20;10.52;;;5.10;;
31206;SDS011;17834;52.992;8.856;2023-06-10T05:50:46;11.43;;;5.65;;
31206;SDS011;17834;52.992;8.856;2023-06-10T05:53:13;12.35;;;5.35;;
31206;SDS011;17834;52.992;8.856;2023-06-10T05:55:41;10.45;;;4.85;;
31206;SDS011;17834;52.992;8.856;2023-06-10T05:58:10;9.50;;;5.38;;
31206;SDS011;17834;52.992;8.856;2023-06-10T06:00:37;12.02;;;5.47;;
31206;SDS011;17834;52.992;8.856;2023-06-10T06:03:06;8.70;;;4.50;;
31206;SDS011;17834;52.992;8.856;2023-06-10T06:05:33;7.82;;;4.72;;
31206;SDS011;17834;52.992;8.856;2023-06-10T06:08:01;8.95;;;4.72;;
31206;SDS011;17834;52.992;8.856;2023-06-10T06:10:27;12.50;;;4.90;;
31206;SDS011;17834;52.992;8.856;2023-06-10T06:12:52;10.02;;;4.43;;
31206;SDS011;17834;52.992;8.856;2023-06-10T06:15:18;10.77;;;4.97;;
31206;SDS011;17834;52.992;8.856;2023-06-10T06:17:43;11.07;;;4.70;;
31206;SDS011;17834;52.992;8.856;2023-06-10T06:20:09;8.30;;;4.90;;
31206;SDS011;17834;52.992;8.856;2023-06-10T06:22:35;9.50;;;4.53;;
31206;SDS011;17834;52.992;8.856;2023-06-10T06:25:00;8.35;;;4.70;;
31206;SDS011;17834;52.992;8.856;2023-06-10T06:27:26;10.02;;;5.00;;
31206;SDS011;17834;52.992;8.856;2023-06-10T06:29:51;9.80;;;5.60;;
31206;SDS011;17834;52.992;8.856;2023-06-10T06:32:17;8.73;;;4.72;;
31206;SDS011;17834;52.992;8.856;2023-06-10T06:34:42;12.63;;;5.15;;
31206;SDS011;17834;52.992;8.856;2023-06-10T06:37:08;8.65;;;5.35;;
31206;SDS011;17834;52.992;8.856;2023-06-10T06:39:33;10.13;;;5.00;;
31206;SDS011;17834;52.992;8.856;2023-06-10T06:41:59;11.13;;;5.63;;
31206;SDS011;17834;52.992;8.856;2023-06-10T06:44:24;11.70;;;5.25;;
31206;SDS011;17834;52.992;8.856;2023-06-10T06:46:50;9.10;;;4.30;;
31206;SDS011;17834;52.992;8.856;2023-06-10T06:49:15;9.52;;;4.93;;
31206;SDS011;17834;52.992;8.856;2023-06-10T06:51:41;9.30;;;4.75;;
31206;SDS011;17834;52.992;8.856;2023-06-10T06:54:06;9.10;;;4.90;;
31206;SDS011;17834;52.992;8.856;2023-06-10T06:56:32;11.30;;;4.40;;
31206;SDS011;17834;52.992;8.856;2023-06-10T06:58:57;7.03;;;4.05;;
31206;SDS011;17834;52.992;8.856;2023-06-10T07:01:23;7.30;;;4.30;;
31206;SDS011;17834;52.992;8.856;2023-06-10T07:03:48;6.95;;;3.97;;
31206;SDS011;17834;52.992;8.856;2023-06-10T07:06:14;5.22;;;3.55;;
31206;SDS011;17834;52.992;8.856;2023-06-10T07:08:39;7.20;;;3.72;;
31206;SDS011;17834;52.992;8.856;2023-06-10T07:11:05;8.85;;;3.88;;
31206;SDS011;17834;52.992;8.856;2023-06-10T07:13:30;6.25;;;3.55;;
31206;SDS011;17834;52.992;8.856;2023-06-10T07:15:56;5.78;;;3.28;;
31206;SDS011;17834;52.992;8.856;2023-06-10T07:18:21;5.80;;;3.35;;
31206;SDS011;17834;52.992;8.856;2023-06-10T07:20:47;6.72;;;3.30;;
31206;SDS011;17834;52.992;8.856;2023-06-10T07:23:12;5.60;;;2.80;;
31206;SDS011;17834;52.992;8.856;2023-06-10T07:25:38;9.35;;;3.40;;
31206;SDS011;17834;52.992;8.856;2023-06-10T07:28:03;6.90;;;3.13;;
31206;SDS011;17834;52.992;8.856;2023-06-10T07:30:29;6.53;;;2.95;;
31206;SDS011;17834;52.992;8.856;2023-06-10T07:32:55;9.55;;;3.60;;
31206;SDS011;17834;52.992;8.856;2023-06-10T07:35:20;7.20;;;3.20;;
31206;SDS011;17834;52.992;8.856;2023-06-10T07:37:46;5.18;;;2.33;;
31206;SDS011;17834;52.992;8.856;2023-06-10T07:40:12;8.02;;;3.22;;
31206;SDS011;17834;52.992;8.856;2023-06-10T07:42:37;7.38;;;3.15;;
31206;SDS011;17834;52.992;8.856;2023-06-10T07:45:03;7.40;;;3.20;;
31206;SDS011;17834;52.992;8.856;2023-06-10T07:47:29;5.88;;;3.10;;
31206;SDS011;17834;52.992;8.856;2023-06-10T07:49:56;5.10;;;3.00;;
31206;SDS011;17834;52.992;8.856;2023-06-10T07:52:21;9.02;;;3.33;;
31206;SDS011;17834;52.992;8.856;2023-06-10T07:54:47;6.45;;;2.88;;
31206;SDS011;17834;52.992;8.856;2023-06-10T07:57:12;6.10;;;3.47;;
31206;SDS011;17834;52.992;8.856;2023-06-10T07:59:38;7.90;;;4.03;;
31206;SDS011;17834;52.992;8.856;2023-06-10T08:02:04;7.47;;;4.53;;
31206;SDS011;17834;52.992;8.856;2023-06-10T08:04:30;7.35;;;3.53;;
31206;SDS011;17834;52.992;8.856;2023-06-10T08:06:56;8.95;;;4.13;;
31206;SDS011;17834;52.992;8.856;2023-06-10T08:09:21;9.18;;;3.85;;
31206;SDS011;17834;52.992;8.856;2023-06-10T08:11:48;11.07;;;4.45;;
31206;SDS011;17834;52.992;8.856;2023-06-10T08:14:14;7.10;;;4.25;;
31206;SDS011;17834;52.992;8.856;2023-06-10T08:16:41;8.82;;;3.95;;
31206;SDS011;17834;52.992;8.856;2023-06-10T08:19:07;10.80;;;5.07;;
31206;SDS011;17834;52.992;8.856;2023-06-10T08:21:34;9.50;;;4.60;;
31206;SDS011;17834;52.992;8.856;2023-06-10T08:24:00;8.63;;;4.30;;
31206;SDS011;17834;52.992;8.856;2023-06-10T08:26:25;7.93;;;4.18;;
31206;SDS011;17834;52.992;8.856;2023-06-10T08:28:50;8.60;;;4.32;;
31206;SDS011;17834;52.992;8.856;2023-06-10T08:31:16;8.75;;;4.35;;
31206;SDS011;17834;52.992;8.856;2023-06-10T08:33:42;8.75;;;4.03;;
31206;SDS011;17834;52.992;8.856;2023-06-10T08:36:07;8.63;;;3.90;;
31206;SDS011;17834;52.992;8.856;2023-06-10T08:38:33;9.13;;;4.32;;
31206;SDS011;17834;52.992;8.856;2023-06-10T08:40:59;7.90;;;4.57;;
31206;SDS011;17834;52.992;8.856;2023-06-10T08:43:32;12.15;;;4.35;;
31206;SDS011;17834;52.992;8.856;2023-06-10T08:46:03;10.73;;;3.90;;
31206;SDS011;17834;52.992;8.856;2023-06-10T08:48:29;9.40;;;4.07;;
31206;SDS011;17834;52.992;8.856;2023-06-10T08:50:56;9.05;;;3.78;;
31206;SDS011;17834;52.992;8.856;2023-06-10T08:53:22;9.70;;;3.90;;
31206;SDS011;17834;52.992;8.856;2023-06-10T08:55:50;9.35;;;4.60;;
31206;SDS011;17834;52.992;8.856;2023-06-10T08:58:17;8.65;;;4.10;;
31206;SDS011;17834;52.992;8.856;2023-06-10T09:00:43;11.75;;;4.10;;
31206;SDS011;17834;52.992;8.856;2023-06-10T09:03:09;9.52;;;4.22;;
31206;SDS011;17834;52.992;8.856;2023-06-10T09:05:35;10.55;;;4.75;;
31206;SDS011;17834;52.992;8.856;2023-06-10T09:08:03;6.20;;;3.17;;
31206;SDS011;17834;52.992;8.856;2023-06-10T09:10:31;7.15;;;4.13;;
31206;SDS011;17834;52.992;8.856;2023-06-10T09:12:57;11.07;;;3.90;;
31206;SDS011;17834;52.992;8.856;2023-06-10T09:15:23;6.30;;;3.58;;
31206;SDS011;17834;52.992;8.856;2023-06-10T09:17:48;5.93;;;3.40;;
31206;SDS011;17834;52.992;8.856;2023-06-10T09:20:14;9.73;;;3.65;;
31206;SDS011;17834;52.992;8.856;2023-06-10T09:22:41;7.85;;;2.83;;
31206;SDS011;17834;52.992;8.856;2023-06-10T09:25:08;10.40;;;3.65;;
31206;SDS011;17834;52.992;8.856;2023-06-10T09:27:45;7.57;;;3.42;;
31206;SDS011;17834;52.992;8.856;2023-06-10T09:32:57;7.25;;;3.28;;
31206;SDS011;17834;52.992;8.856;2023-06-10T09:35:25;12.07;;;3.88;;
31206;SDS011;17834;52.992;8.856;2023-06-10T09:37:53;8.10;;;3.35;;
31206;SDS011;17834;52.992;8.856;2023-06-10T09:40:19;10.52;;;3.30;;
31206;SDS011;17834;52.992;8.856;2023-06-10T09:42:45;5.97;;;3.38;;
31206;SDS011;17834;52.992;8.856;2023-06-10T09:45:10;10.90;;;3.90;;
31206;SDS011;17834;52.992;8.856;2023-06-10T09:47:36;6.60;;;3.25;;
31206;SDS011;17834;52.992;8.856;2023-06-10T09:50:01;9.25;;;3.75;;
31206;SDS011;17834;52.992;8.856;2023-06-10T09:52:28;7.07;;;3.53;;
31206;SDS011;17834;52.992;8.856;2023-06-10T09:54:58;6.43;;;3.40;;
31206;SDS011;17834;52.992;8.856;2023-06-10T09:57:31;9.35;;;3.45;;
31206;SDS011;17834;52.992;8.856;2023-06-10T09:59:58;6.93;;;3.13;;
31206;SDS011;17834;52.992;8.856;2023-06-10T10:02:24;8.15;;;3.58;;
31206;SDS011;17834;52.992;8.856;2023-06-10T10:04:50;8.43;;;4.03;;
31206;SDS011;17834;52.992;8.856;2023-06-10T10:07:15;9.23;;;3.30;;
31206;SDS011;17834;52.992;8.856;2023-06-10T10:09:41;5.35;;;2.75;;
31206;SDS011;17834;52.992;8.856;2023-06-10T10:12:11;7.45;;;2.92;;
31206;SDS011;17834;52.992;8.856;2023-06-10T10:14:39;9.07;;;3.00;;
31206;SDS011;17834;52.992;8.856;2023-06-10T10:17:11;8.05;;;3.10;;
31206;SDS011;17834;52.992;8.856;2023-06-10T10:19:43;8.43;;;3.20;;
31206;SDS011;17834;52.992;8.856;2023-06-10T10:22:22;6.97;;;3.30;;
31206;SDS011;17834;52.992;8.856;2023-06-10T10:24:52;9.52;;;3.10;;
31206;SDS011;17834;52.992;8.856;2023-06-10T10:27:21;6.53;;;3.53;;
31206;SDS011;17834;52.992;8.856;2023-06-10T10:29:54;7.53;;;2.92;;
31206;SDS011;17834;52.992;8.856;2023-06-10T10:32:21;5.88;;;3.25;;
31206;SDS011;17834;52.992;8.856;2023-06-10T10:35:03;9.10;;;3.40;;
31206;SDS011;17834;52.992;8.856;2023-06-10T10:37:33;9.48;;;3.33;;
31206;SDS011;17834;52.992;8.856;2023-06-10T10:40:00;14.85;;;4.03;;
31206;SDS011;17834;52.992;8.856;2023-06-10T10:42:26;6.93;;;3.08;;
31206;SDS011;17834;52.992;8.856;2023-06-10T10:44:52;4.60;;;2.97;;
31206;SDS011;17834;52.992;8.856;2023-06-10T10:47:20;8.80;;;3.15;;
31206;SDS011;17834;52.992;8.856;2023-06-10T10:49:47;12.18;;;3.03;;
31206;SDS011;17834;52.992;8.856;2023-06-10T10:52:15;7.95;;;3.05;;
31206;SDS011;17834;52.992;8.856;2023-06-10T10:54:45;7.55;;;3.70;;
31206;SDS011;17834;52.992;8.856;2023-06-10T10:57:16;8.85;;;3.10;;
31206;SDS011;17834;52.992;8.856;2023-06-10T10:59:55;12.10;;;3.17;;
31206;SDS011;17834;52.992;8.856;2023-06-10T11:02:37;6.25;;;2.90;;
31206;SDS011;17834;52.992;8.856;2023-06-10T11:05:10;11.85;;;3.92;;
31206;SDS011;17834;52.992;8.856;2023-06-10T11:07:36;5.90;;;2.50;;
31206;SDS011;17834;52.992;8.856;2023-06-10T11:10:06;7.57;;;2.90;;
31206;SDS011;17834;52.992;8.856;2023-06-10T11:12:49;5.88;;;2.25;;
31206;SDS011;17834;52.992;8.856;2023-06-10T11:15:20;10.52;;;2.83;;
31206;SDS011;17834;52.992;8.856;2023-06-10T11:26:08;7.63;;;2.67;;
31206;SDS011;17834;52.992;8.856;2023-06-10T11:31:24;7.70;;;2.50;;
31206;SDS011;17834;52.992;8.856;2023-06-10T11:33:52;8.18;;;2.67;;
31206;SDS011;17834;52.992;8.856;2023-06-10T11:36:22;5.32;;;2.42;;
31206;SDS011;17834;52.992;8.856;2023-06-10T11:38:59;7.47;;;2.85;;
31206;SDS011;17834;52.992;8.856;2023-06-10T11:41:29;6.88;;;2.33;;
31206;SDS011;17834;52.992;8.856;2023-06-10T11:43:56;5.88;;;2.20;;
31206;SDS011;17834;52.992;8.856;2023-06-10T11:46:22;5.13;;;2.20;;
31206;SDS011;17834;52.992;8.856;2023-06-10T11:48:51;5.28;;;2.08;;
31206;SDS011;17834;52.992;8.856;2023-06-10T11:51:18;3.72;;;2.05;;
31206;SDS011;17834;52.992;8.856;2023-06-10T11:53:45;5.95;;;2.08;;
31206;SDS011;17834;52.992;8.856;2023-06-10T11:56:11;6.18;;;2.40;;
31206;SDS011;17834;52.992;8.856;2023-06-10T11:58:37;4.25;;;1.95;;
31206;SDS011;17834;52.992;8.856;2023-06-10T12:01:07;4.65;;;1.63;;
31206;SDS011;17834;52.992;8.856;2023-06-10T12:03:37;4.85;;;2.08;;
31206;SDS011;17834;52.992;8.856;2023-06-10T12:06:04;4.68;;;2.20;;
31206;SDS011;17834;52.992;8.856;2023-06-10T12:08:31;4.28;;;2.42;;
31206;SDS011;17834;52.992;8.856;2023-06-10T12:10:58;5.57;;;2.20;;
31206;SDS011;17834;52.992;8.856;2023-06-10T12:13:26;4.07;;;2.10;;
31206;SDS011;17834;52.992;8.856;2023-06-10T12:15:52;4.30;;;1.80;;
31206;SDS011;17834;52.992;8.856;2023-06-10T12:18:21;4.07;;;2.08;;
31206;SDS011;17834;52.992;8.856;2023-06-10T12:20:47;4.85;;;2.13;;
31206;SDS011;17834;52.992;8.856;2023-06-10T12:23:15;3.63;;;1.77;;
31206;SDS011;17834;52.992;8.856;2023-06-10T12:25:54;5.72;;;2.08;;
31206;SDS011;17834;52.992;8.856;2023-06-10T12:28:21;3.88;;;1.85;;
31206;SDS011;17834;52.992;8.856;2023-06-10T12:30:51;4.07;;;2.28;;
31206;SDS011;17834;52.992;8.856;2023-06-10T12:33:17;6.15;;;2.25;;
31206;SDS011;17834;52.992;8.856;2023-06-10T12:35:48;5.60;;;2.08;;
31206;SDS011;17834;52.992;8.856;2023-06-10T12:38:14;6.78;;;2.50;;
31206;SDS011;17834;52.992;8.856;2023-06-10T12:40:46;8.30;;;2.55;;
31206;SDS011;17834;52.992;8.856;2023-06-10T12:43:12;3.38;;;2.20;;
31206;SDS011;17834;52.992;8.856;2023-06-10T12:45:38;4.25;;;2.20;;
31206;SDS011;17834;52.992;8.856;2023-06-10T12:48:12;5.80;;;1.85;;
31206;SDS011;17834;52.992;8.856;2023-06-10T12:50:50;4.05;;;1.75;;
31206;SDS011;17834;52.992;8.856;2023-06-10T12:53:20;8.68;;;2.17;;
31206;SDS011;17834;52.992;8.856;2023-06-10T12:55:47;5.53;;;2.28;;
31206;SDS011;17834;52.992;8.856;2023-06-10T12:58:13;5.82;;;2.95;;
31206;SDS011;17834;52.992;8.856;2023-06-10T13:00:39;4.28;;;2.33;;
31206;SDS011;17834;52.992;8.856;2023-06-10T13:03:07;6.25;;;2.40;;
31206;SDS011;17834;52.992;8.856;2023-06-10T13:05:34;5.78;;;2.45;;
31206;SDS011;17834;52.992;8.856;2023-06-10T13:08:02;4.18;;;2.60;;
31206;SDS011;17834;52.992;8.856;2023-06-10T13:10:28;8.40;;;2.47;;
31206;SDS011;17834;52.992;8.856;2023-06-10T13:12:53;4.35;;;2.15;;
31206;SDS011;17834;52.992;8.856;2023-06-10T13:15:22;4.18;;;2.03;;
31206;SDS011;17834;52.992;8.856;2023-06-10T13:17:47;6.70;;;2.45;;
31206;SDS011;17834;52.992;8.856;2023-06-10T13:20:15;4.50;;;2.20;;
31206;SDS011;17834;52.992;8.856;2023-06-10T13:22:41;4.80;;;2.38;;
31206;SDS011;17834;52.992;8.856;2023-06-10T13:25:07;4.97;;;2.55;;
31206;SDS011;17834;52.992;8.856;2023-06-10T13:27:33;7.28;;;2.70;;
31206;SDS011;17834;52.992;8.856;2023-06-10T13:29:59;5.45;;;2.50;;
31206;SDS011;17834;52.992;8.856;2023-06-10T13:32:25;4.30;;;2.47;;
31206;SDS011;17834;52.992;8.856;2023-06-10T13:34:51;6.90;;;2.20;;
31206;SDS011;17834;52.992;8.856;2023-06-10T13:37:18;5.80;;;2.90;;
31206;SDS011;17834;52.992;8.856;2023-06-10T13:39:43;6.28;;;2.70;;
31206;SDS011;17834;52.992;8.856;2023-06-10T13:42:12;4.70;;;2.60;;
31206;SDS011;17834;52.992;8.856;2023-06-10T13:44:37;6.72;;;3.05;;
31206;SDS011;17834;52.992;8.856;2023-06-10T13:47:03;4.03;;;2.63;;
31206;SDS011;17834;52.992;8.856;2023-06-10T13:49:29;4.95;;;2.33;;
31206;SDS011;17834;52.992;8.856;2023-06-10T13:51:54;4.47;;;2.67;;
31206;SDS011;17834;52.992;8.856;2023-06-10T13:54:20;5.72;;;2.55;;
31206;SDS011;17834;52.992;8.856;2023-06-10T13:56:46;7.13;;;3.08;;
31206;SDS011;17834;52.992;8.856;2023-06-10T13:59:11;5.13;;;3.10;;
31206;SDS011;17834;52.992;8.856;2023-06-10T14:01:37;5.47;;;3.60;;
31206;SDS011;17834;52.992;8.856;2023-06-10T14:04:03;10.27;;;3.25;;
31206;SDS011;17834;52.992;8.856;2023-06-10T14:06:28;6.75;;;3.67;;
31206;SDS011;17834;52.992;8.856;2023-06-10T14:08:55;5.38;;;3.10;;
31206;SDS011;17834;52.992;8.856;2023-06-10T14:11:21;5.60;;;3.20;;
31206;SDS011;17834;52.992;8.856;2023-06-10T14:13:46;8.77;;;2.80;;
31206;SDS011;17834;52.992;8.856;2023-06-10T14:16:12;5.97;;;3.25;;
31206;SDS011;17834;52.992;8.856;2023-06-10T14:18:37;6.75;;;3.35;;
31206;SDS011;17834;52.992;8.856;2023-06-10T14:21:03;7.65;;;3.30;;
31206;SDS011;17834;52.992;8.856;2023-06-10T14:23:29;7.18;;;3.05;;
31206;SDS011;17834;52.992;8.856;2023-06-10T14:25:55;5.15;;;3.47;;
31206;SDS011;17834;52.992;8.856;2023-06-10T14:28:20;5.93;;;3.05;;
31206;SDS011;17834;52.992;8.856;2023-06-10T14:30:46;8.02;;;3.60;;
31206;SDS011;17834;52.992;8.856;2023-06-10T14:33:11;6.75;;;3.88;;
31206;SDS011;17834;52.992;8.856;2023-06-10T14:35:37;6.43;;;3.50;;
31206;SDS011;17834;52.992;8.856;2023-06-10T14:38:02;5.38;;;3.67;;
31206;SDS011;17834;52.992;8.856;2023-06-10T14:40:28;10.75;;;4.00;;
31206;SDS011;17834;52.992;8.856;2023-06-10T14:42:54;6.25;;;3.97;;
31206;SDS011;17834;52.992;8.856;2023-06-10T14:45:20;7.00;;;3.70;;
31206;SDS011;17834;52.992;8.856;2023-06-10T14:47:45;6.63;;;3.38;;
31206;SDS011;17834;52.992;8.856;2023-06-10T14:50:12;7.65;;;3.55;;
31206;SDS011;17834;52.992;8.856;2023-06-10T14:52:37;6.03;;;3.92;;
31206;SDS011;17834;52.992;8.856;2023-06-10T14:55:03;9.20;;;4.35;;
31206;SDS011;17834;52.992;8.856;2023-06-10T14:57:29;6.18;;;3.75;;